Time;durP1;ratioP1;P1;durP2;ratioP2;P2;SDS_P1;SDS_P2;PMS_P1;PMS_P2;Temp;Humidity;BMP_temperature;BMP_pressure;BME280_temperature;BME280_humidity;BME280_pressure;Samples;Min_cycle;Max_cycle;Signal;HPM_P1;HPM_P2
2024/01/23 00:00:09;;;;;;;29.75;4.43;;;8.40;1.00;;;;;;5072717;28;20032;-74
2024/01/23 00:02:35;;;;;;;20.05;4.93;;;8.30;1.00;;;;;;5073033;28;20031;-73
2024/01/23 00:05:00;;;;;;;25.38;4.55;;;8.20;1.00;;;;;;5071812;28;20444;-73
2024/01/23 00:07:26;;;;;;;19.92;5.05;;;8.10;1.00;;;;;;5072986;28;20048;-74
2024/01/23 00:09:51;;;;;;;21.75;4.63;;;8.20;1.00;;;;;;5073076;28;20059;-74
2024/01/23 00:12:17;;;;;;;22.40;5.13;;;8.20;1.00;;;;;;5072839;28;20475;-74
2024/01/23 00:14:42;;;;;;;28.80;5.68;;;8.20;1.00;;;;;;5072828;28;20085;-74
2024/01/23 00:17:08;;;;;;;22.52;4.78;;;8.20;1.00;;;;;;5073007;28;20108;-74
2024/01/23 00:19:33;;;;;;;24.55;5.35;;;8.20;1.00;;;;;;5072477;28;20127;-74
2024/01/23 00:21:59;;;;;;;18.33;4.43;;;8.20;1.00;;;;;;5073008;28;20036;-73
2024/01/23 00:24:24;;;;;;;28.98;5.15;;;8.20;1.00;;;;;;5072841;28;20103;-74
2024/01/23 00:26:50;;;;;;;22.92;4.68;;;8.20;1.00;;;;;;5072841;28;20028;-73
2024/01/23 00:29:15;;;;;;;20.25;4.20;;;8.20;1.00;;;;;;5072765;28;20033;-73
2024/01/23 00:31:41;;;;;;;24.02;4.93;;;8.20;1.00;;;;;;5072491;28;20048;-74
2024/01/23 00:34:07;;;;;;;32.08;5.78;;;8.20;1.00;;;;;;5072819;28;20063;-74
2024/01/23 00:36:32;;;;;;;25.40;5.10;;;8.10;1.00;;;;;;5072912;28;20456;-74
2024/01/23 00:38:58;;;;;;;28.88;5.20;;;8.10;1.00;;;;;;5072538;28;20394;-73
2024/01/23 00:41:24;;;;;;;25.23;5.97;;;8.10;1.00;;;;;;5072429;28;20029;-74
2024/01/23 00:43:49;;;;;;;20.83;3.90;;;8.10;1.00;;;;;;5072675;28;20062;-73
2024/01/23 00:46:15;;;;;;;22.67;4.40;;;8.00;1.00;;;;;;5072667;28;20090;-73
2024/01/23 00:48:41;;;;;;;20.88;4.68;;;7.90;1.00;;;;;;5075362;28;20043;-71
2024/01/23 00:51:06;;;;;;;21.33;4.45;;;7.90;1.00;;;;;;5076403;28;20036;-73
2024/01/23 00:53:32;;;;;;;14.55;3.85;;;7.90;1.00;;;;;;5076188;28;20021;-73
2024/01/23 00:55:58;;;;;;;22.08;3.75;;;7.90;1.00;;;;;;5076329;28;20050;-74
2024/01/23 00:58:24;;;;;;;19.80;3.95;;;7.80;2.00;;;;;;5076115;28;20025;-73
2024/01/23 01:00:50;;;;;;;16.58;4.15;;;7.70;1.00;;;;;;5075885;28;20037;-73
2024/01/23 01:03:15;;;;;;;27.85;4.50;;;7.80;1.00;;;;;;5076128;28;20025;-73
2024/01/23 01:05:41;;;;;;;26.17;4.93;;;7.70;1.00;;;;;;5075992;28;20036;-74
2024/01/23 01:08:07;;;;;;;25.92;4.82;;;7.70;19.40;;;;;;5075622;28;20032;-73
2024/01/23 01:10:33;;;;;;;12.48;3.33;;;7.50;28.10;;;;;;5075944;28;20040;-73
2024/01/23 01:12:58;;;;;;;21.33;3.78;;;7.40;46.00;;;;;;5075579;28;20093;-74
2024/01/23 01:15:24;;;;;;;16.17;4.20;;;7.30;57.90;;;;;;5075792;28;20032;-73
2024/01/23 01:17:50;;;;;;;26.67;4.20;;;7.30;70.20;;;;;;5075782;28;20017;-73
2024/01/23 01:20:15;;;;;;;26.63;4.72;;;7.30;57.50;;;;;;5075567;28;20082;-73
2024/01/23 01:22:41;;;;;;;21.13;5.00;;;7.30;67.70;;;;;;5075759;28;20134;-73
2024/01/23 01:25:08;;;;;;;25.27;4.40;;;7.30;57.80;;;;;;5075627;28;20082;-73
2024/01/23 01:27:34;;;;;;;19.42;4.78;;;7.20;53.60;;;;;;5075713;28;20024;-73
2024/01/23 01:30:00;;;;;;;24.10;4.55;;;7.30;43.90;;;;;;5075704;28;20074;-73
2024/01/23 01:32:25;;;;;;;20.25;4.70;;;7.40;24.80;;;;;;5075213;28;20497;-73
2024/01/23 01:34:51;;;;;;;22.58;4.43;;;7.40;23.70;;;;;;5075470;28;20036;-73
2024/01/23 01:37:16;;;;;;;24.05;4.50;;;7.40;18.80;;;;;;5075250;28;20035;-73
2024/01/23 01:39:42;;;;;;;23.00;4.72;;;7.40;9.00;;;;;;5075011;28;20056;-73
2024/01/23 01:42:08;;;;;;;16.45;4.13;;;7.40;11.00;;;;;;5075385;28;20031;-73
2024/01/23 01:44:34;;;;;;;23.75;4.65;;;7.30;5.30;;;;;;5075192;28;20024;-73
2024/01/23 01:47:00;;;;;;;24.10;4.65;;;7.30;6.00;;;;;;5075376;28;20390;-73
2024/01/23 01:49:26;;;;;;;27.58;4.32;;;7.20;2.00;;;;;;5075155;28;20112;-73
2024/01/23 01:51:52;;;;;;;26.95;4.63;;;7.20;1.00;;;;;;5073943;28;20028;-73
2024/01/23 01:54:19;;;;;;;23.25;4.47;;;7.20;1.00;;;;;;5074784;28;20510;-73
2024/01/23 01:56:45;;;;;;;22.58;4.25;;;7.30;1.00;;;;;;5074698;28;20111;-73
2024/01/23 01:59:11;;;;;;;22.63;3.70;;;7.20;1.00;;;;;;5074859;28;20021;-73
2024/01/23 02:01:37;;;;;;;23.73;4.25;;;7.20;1.00;;;;;;5074557;28;20025;-73
2024/01/23 02:04:02;;;;;;;25.73;4.18;;;7.20;1.00;;;;;;5075022;28;20028;-73
2024/01/23 02:06:30;;;;;;;21.75;3.80;;;7.20;1.00;;;;;;5074733;28;20020;-73
2024/01/23 02:08:56;;;;;;;21.83;4.70;;;7.10;1.00;;;;;;5074828;28;20545;-73
2024/01/23 02:11:21;;;;;;;19.42;3.80;;;7.10;1.00;;;;;;5074646;28;20028;-73
2024/01/23 02:13:47;;;;;;;24.80;5.10;;;7.10;1.00;;;;;;5074756;28;20035;-73
2024/01/23 02:16:13;;;;;;;22.15;3.83;;;7.20;1.00;;;;;;5074710;28;20482;-73
2024/01/23 02:18:38;;;;;;;20.52;3.72;;;7.20;1.00;;;;;;5074693;28;20141;-73
2024/01/23 02:21:04;;;;;;;23.02;3.65;;;7.20;1.00;;;;;;5074173;28;20078;-73
2024/01/23 02:23:30;;;;;;;17.42;3.58;;;7.20;1.00;;;;;;5074449;28;20052;-73
2024/01/23 02:25:56;;;;;;;25.63;3.88;;;7.20;1.00;;;;;;5074495;28;20052;-73
2024/01/23 02:28:22;;;;;;;18.33;3.88;;;7.10;1.00;;;;;;5074384;28;20115;-73
2024/01/23 02:30:48;;;;;;;25.33;4.45;;;7.00;1.00;;;;;;5074183;28;20028;-73
2024/01/23 02:33:14;;;;;;;25.73;4.65;;;7.00;1.00;;;;;;5074359;28;20078;-73
2024/01/23 02:35:40;;;;;;;26.75;4.82;;;7.10;1.00;;;;;;5074417;28;20470;-73
2024/01/23 02:38:08;;;;;;;17.55;3.30;;;7.20;1.00;;;;;;5073921;28;20031;-73
2024/01/23 02:40:34;;;;;;;17.73;3.67;;;7.20;1.00;;;;;;5073776;28;20484;-73
2024/01/23 02:43:00;;;;;;;25.73;4.25;;;7.20;1.00;;;;;;5074183;28;20099;-73
2024/01/23 02:45:25;;;;;;;16.02;3.65;;;7.10;1.00;;;;;;5073946;28;20059;-73
2024/01/23 02:47:51;;;;;;;24.83;4.45;;;7.10;1.00;;;;;;5073627;28;20090;-73
2024/01/23 02:50:16;;;;;;;16.30;3.85;;;7.20;1.00;;;;;;5074017;28;20035;-74
2024/01/23 02:52:42;;;;;;;23.38;3.97;;;7.20;1.00;;;;;;5074004;28;20036;-74
2024/01/23 02:55:08;;;;;;;33.13;4.57;;;7.30;1.00;;;;;;5073999;28;20383;-73
2024/01/23 02:57:33;;;;;;;27.00;4.43;;;7.30;1.00;;;;;;5073822;28;20067;-73
2024/01/23 02:59:59;;;;;;;22.10;4.00;;;7.30;1.00;;;;;;5073726;28;20530;-73
2024/01/23 03:02:25;;;;;;;26.15;4.20;;;7.30;1.00;;;;;;5073597;28;20020;-73
2024/01/23 03:04:50;;;;;;;21.45;3.63;;;7.20;4.50;;;;;;5073478;28;20035;-73
2024/01/23 03:07:17;;;;;;;22.95;4.85;;;7.10;28.20;;;;;;5073701;28;20041;-73
2024/01/23 03:09:43;;;;;;;18.48;3.80;;;7.10;20.40;;;;;;5073487;28;20424;-73
2024/01/23 03:12:17;;;;;;;21.92;3.80;;;7.00;22.40;;;;;;5073497;28;20031;-73
2024/01/23 03:14:43;;;;;;;28.70;3.92;;;7.00;7.10;;;;;;5073459;28;20505;-73
2024/01/23 03:17:11;;;;;;;20.17;4.25;;;7.00;14.30;;;;;;5073507;28;20513;-73
2024/01/23 03:19:36;;;;;;;17.35;3.58;;;7.10;1.00;;;;;;5073746;28;20482;-73
2024/01/23 03:22:03;;;;;;;19.35;3.97;;;7.20;1.00;;;;;;5073556;28;20032;-73
2024/01/23 03:24:29;;;;;;;24.92;4.45;;;7.20;1.00;;;;;;5073517;28;20028;-73
2024/01/23 03:26:55;;;;;;;24.70;4.13;;;7.20;1.00;;;;;;5073296;28;20067;-74
2024/01/23 03:29:20;;;;;;;22.77;4.25;;;7.10;1.00;;;;;;5073194;28;20029;-74
2024/01/23 03:31:46;;;;;;;22.13;3.70;;;7.00;1.00;;;;;;5073292;28;20060;-73
2024/01/23 03:34:11;;;;;;;17.17;3.65;;;7.10;1.00;;;;;;5073046;28;20115;-73
2024/01/23 03:36:37;;;;;;;19.45;3.55;;;7.10;1.00;;;;;;5073376;28;20025;-73
2024/01/23 03:39:03;;;;;;;28.55;3.88;;;7.00;1.00;;;;;;5072755;28;20078;-73
2024/01/23 03:41:29;;;;;;;18.65;3.35;;;7.00;1.00;;;;;;5073114;28;20478;-73
2024/01/23 03:43:55;;;;;;;23.02;4.78;;;7.00;1.00;;;;;;5073106;28;20471;-73
2024/01/23 03:46:21;;;;;;;24.52;4.20;;;6.90;1.00;;;;;;5073358;28;20017;-73
2024/01/23 03:48:46;;;;;;;19.23;3.20;;;6.90;1.00;;;;;;5073153;28;20030;-73
2024/01/23 03:51:12;;;;;;;18.67;3.65;;;6.90;1.00;;;;;;5073296;28;20036;-73
2024/01/23 03:53:37;;;;;;;19.08;3.58;;;6.80;1.00;;;;;;5073203;28;20137;-73
2024/01/23 03:56:03;;;;;;;23.00;3.78;;;6.80;1.00;;;;;;5073032;28;20034;-73
2024/01/23 03:58:28;;;;;;;26.35;4.75;;;6.90;1.00;;;;;;5073293;28;20053;-73
2024/01/23 04:00:57;;;;;;;22.15;4.13;;;7.00;1.00;;;;;;5072867;28;20103;-73
2024/01/23 04:03:23;;;;;;;24.15;3.67;;;6.90;1.00;;;;;;5072735;28;20522;-73
2024/01/23 04:05:48;;;;;;;21.10;4.50;;;7.00;1.00;;;;;;5073147;28;20066;-73
2024/01/23 04:08:14;;;;;;;26.00;4.78;;;7.00;1.00;;;;;;5073090;28;20028;-73
2024/01/23 04:10:39;;;;;;;18.58;4.05;;;7.00;1.00;;;;;;5072849;28;20016;-73
2024/01/23 04:13:05;;;;;;;30.67;5.40;;;7.10;1.00;;;;;;5072729;28;20033;-73
2024/01/23 04:15:30;;;;;;;25.63;4.10;;;7.10;1.00;;;;;;5073189;28;20109;-74
2024/01/23 04:17:57;;;;;;;33.00;4.57;;;7.10;1.00;;;;;;5072955;28;20058;-73
2024/01/23 04:20:22;;;;;;;18.17;4.13;;;7.20;1.00;;;;;;5072851;28;20032;-74
2024/01/23 04:22:48;;;;;;;25.08;4.47;;;7.20;1.00;;;;;;5074551;28;20483;-73
2024/01/23 04:25:13;;;;;;;25.02;5.47;;;7.20;1.00;;;;;;5076524;28;20035;-73
2024/01/23 04:27:39;;;;;;;26.27;4.07;;;7.20;1.00;;;;;;5076853;28;20033;-73
2024/01/23 04:30:05;;;;;;;20.92;4.20;;;7.20;1.00;;;;;;5076599;28;20029;-73
2024/01/23 04:32:30;;;;;;;28.50;4.93;;;7.20;1.00;;;;;;5076466;28;20029;-73
2024/01/23 04:34:56;;;;;;;26.13;4.55;;;7.30;1.00;;;;;;5076633;28;20035;-73
2024/01/23 04:37:22;;;;;;;20.70;3.90;;;7.30;1.00;;;;;;5076447;28;20090;-73
2024/01/23 04:39:48;;;;;;;23.73;4.05;;;7.30;1.00;;;;;;5076175;28;20059;-73
2024/01/23 04:42:14;;;;;;;23.75;4.95;;;7.20;1.00;;;;;;5076432;28;20393;-73
2024/01/23 04:44:39;;;;;;;22.70;5.25;;;7.30;1.00;;;;;;5076518;28;20029;-73
2024/01/23 04:47:05;;;;;;;20.77;4.30;;;7.30;1.00;;;;;;5076414;28;20028;-72
2024/01/23 04:49:30;;;;;;;23.63;4.72;;;7.30;1.00;;;;;;5076301;28;20031;-73
2024/01/23 04:51:56;;;;;;;21.73;4.38;;;7.20;1.00;;;;;;5076239;28;20041;-73
2024/01/23 04:54:22;;;;;;;25.38;4.10;;;7.20;1.00;;;;;;5076327;28;20081;-73
2024/01/23 04:56:47;;;;;;;19.88;3.50;;;7.10;1.00;;;;;;5076197;28;20406;-73
2024/01/23 04:59:13;;;;;;;20.90;4.35;;;7.10;1.00;;;;;;5076266;28;20025;-73
2024/01/23 05:01:38;;;;;;;28.35;4.32;;;7.00;1.00;;;;;;5075653;28;20024;-73
2024/01/23 05:04:04;;;;;;;20.80;4.13;;;7.10;1.00;;;;;;5076135;28;20025;-73
2024/01/23 05:06:30;;;;;;;24.77;3.95;;;7.00;1.00;;;;;;5076225;28;20028;-74
2024/01/23 05:08:56;;;;;;;23.27;4.72;;;7.00;1.00;;;;;;5075942;28;20087;-73
2024/01/23 05:11:21;;;;;;;22.85;4.57;;;7.00;1.00;;;;;;5075917;28;20028;-73
2024/01/23 05:13:47;;;;;;;28.23;4.05;;;7.00;1.00;;;;;;5075526;28;20035;-73
2024/01/23 05:16:12;;;;;;;21.00;4.22;;;7.00;1.00;;;;;;5075851;28;20117;-73
2024/01/23 05:18:38;;;;;;;17.60;3.33;;;7.00;1.00;;;;;;5075897;28;20035;-73
2024/01/23 05:21:03;;;;;;;23.85;4.13;;;7.00;1.00;;;;;;5075658;28;20098;-73
2024/01/23 05:23:29;;;;;;;27.50;4.43;;;7.10;1.00;;;;;;5075464;28;20501;-74
2024/01/23 05:25:54;;;;;;;24.73;4.93;;;7.00;1.00;;;;;;5075693;28;20099;-73
2024/01/23 05:28:20;;;;;;;23.40;4.50;;;7.00;1.00;;;;;;5075702;28;20028;-73
2024/01/23 05:30:46;;;;;;;20.75;3.72;;;7.00;1.00;;;;;;5075583;28;20178;-73
2024/01/23 05:33:11;;;;;;;20.17;3.35;;;7.00;1.00;;;;;;5075226;28;20035;-73
2024/01/23 05:35:37;;;;;;;28.25;5.15;;;7.00;1.00;;;;;;5075440;28;20044;-73
2024/01/23 05:38:03;;;;;;;27.40;3.70;;;6.80;1.00;;;;;;5075407;28;20139;-73
2024/01/23 05:40:28;;;;;;;20.50;3.72;;;6.80;1.00;;;;;;5074743;28;20124;-73
2024/01/23 05:42:54;;;;;;;26.15;4.43;;;6.80;1.00;;;;;;5075370;28;20032;-74
2024/01/23 05:45:19;;;;;;;25.70;4.75;;;6.70;1.00;;;;;;5074923;28;20020;-73
2024/01/23 05:47:45;;;;;;;25.80;4.75;;;6.80;1.00;;;;;;5075289;28;20474;-73
2024/01/23 05:50:10;;;;;;;24.13;4.50;;;6.80;1.00;;;;;;5074840;28;20107;-73
2024/01/23 05:52:36;;;;;;;23.98;4.07;;;6.80;1.00;;;;;;5075168;28;20083;-71
2024/01/23 05:55:03;;;;;;;25.77;4.03;;;6.80;1.00;;;;;;5075276;28;20525;-73
2024/01/23 05:57:29;;;;;;;17.42;3.75;;;6.90;1.00;;;;;;5075071;28;20032;-73
2024/01/23 05:59:55;;;;;;;30.33;4.70;;;6.90;1.00;;;;;;5074483;28;20524;-73
2024/01/23 06:02:20;;;;;;;32.42;4.38;;;6.90;1.00;;;;;;5074549;28;20382;-73
2024/01/23 06:04:46;;;;;;;23.83;4.28;;;7.00;1.00;;;;;;5074777;28;20031;-73
2024/01/23 06:07:12;;;;;;;24.90;4.65;;;7.00;1.00;;;;;;5074900;28;20036;-73
2024/01/23 06:09:37;;;;;;;30.90;5.18;;;7.00;1.00;;;;;;5074868;28;20021;-73
2024/01/23 06:12:03;;;;;;;19.10;3.97;;;7.00;1.00;;;;;;5074288;28;20067;-73
2024/01/23 06:14:29;;;;;;;26.10;4.70;;;7.00;1.00;;;;;;5074898;28;20033;-73
2024/01/23 06:16:54;;;;;;;34.13;5.53;;;7.00;1.00;;;;;;5074691;28;20490;-73
2024/01/23 06:19:20;;;;;;;24.83;4.53;;;7.00;1.00;;;;;;5074552;28;20029;-73
2024/01/23 06:21:46;;;;;;;28.38;4.32;;;7.00;1.00;;;;;;5074122;28;20024;-73
2024/01/23 06:24:11;;;;;;;18.98;4.10;;;7.00;1.00;;;;;;5074195;28;20020;-73
2024/01/23 06:26:37;;;;;;;30.98;5.72;;;6.90;1.00;;;;;;5074506;28;20024;-73
2024/01/23 06:29:04;;;;;;;25.88;4.80;;;6.90;1.00;;;;;;5074337;28;20056;-73
2024/01/23 06:31:30;;;;;;;24.48;4.03;;;6.90;1.00;;;;;;5074199;28;20036;-73
2024/01/23 06:33:55;;;;;;;33.03;4.75;;;6.90;1.00;;;;;;5074265;28;20025;-73
2024/01/23 06:36:21;;;;;;;27.52;4.88;;;6.90;1.00;;;;;;5073791;28;20028;-73
2024/01/23 06:38:47;;;;;;;18.73;4.32;;;6.80;1.00;;;;;;5073970;28;20039;-73
2024/01/23 06:41:12;;;;;;;24.15;4.45;;;6.80;1.00;;;;;;5073640;28;20050;-73
2024/01/23 06:43:38;;;;;;;26.23;4.88;;;6.80;1.00;;;;;;5074075;28;20036;-73
2024/01/23 06:46:04;;;;;;;24.98;5.38;;;6.80;1.00;;;;;;5073323;28;20070;-72
2024/01/23 06:48:31;;;;;;;27.02;5.25;;;6.80;1.00;;;;;;5073516;28;20021;-74
2024/01/23 06:50:56;;;;;;;22.15;4.80;;;6.70;1.00;;;;;;5073946;28;20029;-72
2024/01/23 06:53:22;;;;;;;22.27;3.70;;;6.80;1.00;;;;;;5073480;28;20402;-72
2024/01/23 06:55:48;;;;;;;27.30;5.15;;;6.80;1.00;;;;;;5073731;28;20039;-73
2024/01/23 06:58:13;;;;;;;31.88;4.80;;;6.80;1.00;;;;;;5073883;28;20033;-73
2024/01/23 07:00:40;;;;;;;33.45;5.10;;;6.70;1.00;;;;;;5073514;28;20090;-72
2024/01/23 07:03:06;;;;;;;25.20;5.07;;;6.70;1.00;;;;;;5073553;28;20052;-71
2024/01/23 07:05:31;;;;;;;33.08;4.40;;;6.70;1.00;;;;;;5072829;28;20021;-73
2024/01/23 07:07:57;;;;;;;32.75;4.93;;;6.70;1.00;;;;;;5073090;28;20031;-73
2024/01/23 07:10:23;;;;;;;29.40;4.88;;;6.70;1.00;;;;;;5073121;28;20051;-73
2024/01/23 07:12:48;;;;;;;28.45;5.25;;;6.70;1.00;;;;;;5073445;28;20040;-72
2024/01/23 07:15:14;;;;;;;18.17;4.22;;;6.60;1.00;;;;;;5073333;28;20032;-73
2024/01/23 07:17:39;;;;;;;24.63;3.95;;;6.50;1.00;;;;;;5073278;28;20028;-73
2024/01/23 07:20:09;;;;;;;25.40;3.50;;;6.50;1.00;;;;;;5073102;28;20028;-72
2024/01/23 07:22:34;;;;;;;39.80;4.90;;;6.50;1.00;;;;;;5073026;28;20017;-72
2024/01/23 07:25:03;;;;;;;21.80;4.50;;;6.50;1.00;;;;;;5073177;28;20035;-74
2024/01/23 07:27:29;;;;;;;24.25;5.38;;;6.40;1.00;;;;;;5073015;28;20036;-73
2024/01/23 07:29:55;;;;;;;30.80;4.60;;;6.50;1.00;;;;;;5072544;28;20032;-73
2024/01/23 07:32:20;;;;;;;22.65;5.00;;;6.50;1.00;;;;;;5069604;28;20415;-73
2024/01/23 07:34:46;;;;;;;25.40;4.75;;;6.50;1.00;;;;;;5080706;28;20051;-72
2024/01/23 07:37:11;;;;;;;30.42;4.57;;;6.50;1.00;;;;;;5075747;28;20021;-73
2024/01/23 07:39:37;;;;;;;28.60;5.20;;;6.50;1.00;;;;;;5075572;28;20087;-72
2024/01/23 07:42:03;;;;;;;31.95;5.15;;;6.50;1.00;;;;;;5081018;28;20431;-72
2024/01/23 07:44:29;;;;;;;23.25;4.35;;;6.50;1.00;;;;;;5078538;28;20052;-73
2024/01/23 07:46:54;;;;;;;26.23;4.90;;;6.50;1.00;;;;;;5072686;28;20129;-72
2024/01/23 07:49:20;;;;;;;23.30;4.45;;;6.50;1.00;;;;;;5072662;28;20031;-72
2024/01/23 07:51:48;;;;;;;28.73;4.38;;;6.60;1.00;;;;;;5073014;28;20024;-72
2024/01/23 07:54:14;;;;;;;27.23;5.43;;;6.60;1.00;;;;;;5073785;28;20382;-74
2024/01/23 07:56:39;;;;;;;27.40;4.40;;;6.60;1.00;;;;;;5074143;28;20036;-72
2024/01/23 07:59:05;;;;;;;33.42;5.57;;;6.60;1.00;;;;;;5076269;28;20031;-72
2024/01/23 08:01:31;;;;;;;26.67;5.00;;;6.60;1.00;;;;;;5076705;28;20133;-72
2024/01/23 08:03:57;;;;;;;30.80;6.20;;;6.60;1.00;;;;;;5073412;28;20029;-72
2024/01/23 08:06:23;;;;;;;26.60;5.38;;;6.60;1.00;;;;;;5076440;28;20032;-72
2024/01/23 08:08:50;;;;;;;23.60;5.25;;;6.70;1.00;;;;;;5061048;28;20025;-72
2024/01/23 08:11:16;;;;;;;26.77;4.68;;;6.70;1.00;;;;;;5079214;28;20387;-72
2024/01/23 08:13:41;;;;;;;26.27;5.97;;;6.70;1.00;;;;;;5078916;28;20028;-72
2024/01/23 08:16:09;;;;;;;38.05;6.70;;;6.70;1.00;;;;;;5080937;28;20032;-72
2024/01/23 08:18:36;;;;;;;26.65;6.43;;;6.70;1.00;;;;;;5077409;28;20035;-72
2024/01/23 08:21:03;;;;;;;32.17;6.00;;;6.70;1.00;;;;;;5087171;28;20514;-72
2024/01/23 08:23:28;;;;;;;31.40;6.35;;;6.70;1.00;;;;;;5080095;28;20028;-73
2024/01/23 08:25:54;;;;;;;30.30;5.80;;;6.80;1.00;;;;;;5083582;28;20077;-73
2024/01/23 08:28:19;;;;;;;26.25;6.53;;;6.80;1.00;;;;;;5079804;28;20043;-73
2024/01/23 08:30:45;;;;;;;32.15;6.97;;;6.70;1.00;;;;;;5075676;28;20025;-72
2024/01/23 08:33:17;;;;;;;29.30;6.97;;;6.80;1.00;;;;;;5088022;28;20043;-72
2024/01/23 08:35:42;;;;;;;27.45;7.18;;;6.80;1.00;;;;;;5082820;28;20031;-73
2024/01/23 08:38:09;;;;;;;30.67;6.05;;;6.80;1.00;;;;;;5090381;28;20062;-73
2024/01/23 08:40:35;;;;;;;25.45;5.68;;;6.80;1.00;;;;;;5081500;28;20036;-73
2024/01/23 08:43:01;;;;;;;24.73;5.35;;;6.80;1.00;;;;;;5074012;28;20032;-73
2024/01/23 08:45:26;;;;;;;34.38;6.65;;;6.80;1.00;;;;;;5081856;28;20059;-73
2024/01/23 08:47:52;;;;;;;30.45;6.45;;;6.80;1.00;;;;;;5076782;28;20542;-73
2024/01/23 08:50:18;;;;;;;30.83;6.72;;;6.80;1.00;;;;;;5076429;28;20031;-73
2024/01/23 08:52:45;;;;;;;37.15;6.60;;;6.80;1.00;;;;;;5069831;28;20108;-72
2024/01/23 08:55:10;;;;;;;28.95;6.05;;;6.80;1.00;;;;;;5082981;28;20028;-72
2024/01/23 08:57:36;;;;;;;31.40;6.53;;;6.80;1.00;;;;;;5074781;28;20032;-73
2024/01/23 09:00:04;;;;;;;29.70;6.53;;;6.80;1.00;;;;;;5074743;28;20025;-70
2024/01/23 09:02:29;;;;;;;28.80;7.32;;;6.80;1.00;;;;;;5077506;28;20025;-73
2024/01/23 09:04:55;;;;;;;24.90;6.57;;;6.80;1.00;;;;;;5075729;28;20158;-73
2024/01/23 09:07:22;;;;;;;26.90;5.95;;;6.80;1.00;;;;;;5075303;28;20393;-71
2024/01/23 09:09:49;;;;;;;26.45;6.80;;;6.80;1.00;;;;;;5080669;28;20379;-73
2024/01/23 09:12:16;;;;;;;31.42;5.90;;;6.80;1.00;;;;;;5077301;28;20035;-73
2024/01/23 09:14:42;;;;;;;34.25;7.38;;;6.80;1.00;;;;;;5086425;28;20568;-73
2024/01/23 09:17:08;;;;;;;27.73;7.63;;;6.90;1.00;;;;;;5090793;28;20028;-73
2024/01/23 09:19:33;;;;;;;30.15;7.78;;;7.10;1.00;;;;;;5080579;28;20119;-73
2024/01/23 09:21:59;;;;;;;32.42;6.55;;;7.10;1.00;;;;;;5083608;28;20039;-73
2024/01/23 09:24:24;;;;;;;30.80;6.70;;;7.20;1.00;;;;;;5086366;28;20432;-72
2024/01/23 09:26:50;;;;;;;27.33;5.80;;;7.20;1.00;;;;;;5077079;28;20024;-73
2024/01/23 09:29:16;;;;;;;35.92;6.40;;;7.50;1.00;;;;;;5079946;28;20047;-72
2024/01/23 09:31:45;;;;;;;35.38;6.60;;;7.60;1.00;;;;;;5083204;28;20393;-73
2024/01/23 09:34:11;;;;;;;29.98;6.38;;;7.40;1.00;;;;;;5078876;28;20389;-72
2024/01/23 09:36:36;;;;;;;28.27;5.80;;;7.80;1.00;;;;;;5079554;28;20024;-72
2024/01/23 09:39:02;;;;;;;31.75;6.68;;;8.20;99.90;;;;;;5087583;28;20028;-73
2024/01/23 09:41:29;;;;;;;24.00;6.22;;;7.70;1.00;;;;;;5075753;28;20403;-73
2024/01/23 09:43:55;;;;;;;31.38;6.47;;;7.50;1.00;;;;;;5073487;28;20510;-72
2024/01/23 09:46:23;;;;;;;21.45;5.43;;;7.50;1.00;;;;;;5073986;28;20035;-73
2024/01/23 09:48:48;;;;;;;26.42;6.15;;;7.60;1.00;;;;;;5068769;28;20399;-73
2024/01/23 09:51:14;;;;;;;33.42;5.78;;;8.00;1.00;;;;;;5069764;28;20039;-73
2024/01/23 09:53:42;;;;;;;32.28;6.07;;;8.40;99.90;;;;;;5067158;28;20033;-72
2024/01/23 09:56:09;;;;;;;23.60;5.63;;;8.70;99.90;;;;;;5067540;28;20123;-73
2024/01/23 09:58:36;;;;;;;37.97;5.65;;;8.40;99.90;;;;;;5068895;28;20029;-73
2024/01/23 10:01:02;;;;;;;31.60;7.00;;;8.60;99.90;;;;;;5066950;28;20474;-73
2024/01/23 10:03:31;;;;;;;25.40;5.72;;;8.50;99.90;;;;;;5065961;28;20100;-73
2024/01/23 10:05:57;;;;;;;29.67;5.93;;;8.20;99.90;;;;;;5073898;28;20022;-73
2024/01/23 10:08:25;;;;;;;31.13;5.13;;;8.10;99.90;;;;;;5072648;28;20107;-73
2024/01/23 10:10:59;;;;;;;31.55;6.03;;;7.90;1.00;;;;;;5080113;28;20031;-73
2024/01/23 10:13:26;;;;;;;30.52;6.22;;;7.80;1.00;;;;;;5069541;28;20029;-72
2024/01/23 10:15:53;;;;;;;35.13;5.90;;;7.60;1.00;;;;;;5068515;28;20025;-73
2024/01/23 10:18:21;;;;;;;26.58;5.65;;;7.70;1.00;;;;;;5071591;28;20029;-73
2024/01/23 10:20:46;;;;;;;35.47;6.60;;;7.70;1.00;;;;;;5062965;28;20033;-72
2024/01/23 10:23:13;;;;;;;32.17;5.80;;;7.80;1.00;;;;;;5075298;28;20021;-73
2024/01/23 10:25:40;;;;;;;18.58;4.82;;;8.20;1.00;;;;;;5078461;28;20059;-73
2024/01/23 10:28:09;;;;;;;37.50;6.10;;;8.70;99.90;;;;;;5075375;28;20028;-74
2024/01/23 10:30:38;;;;;;;23.48;5.68;;;9.10;1.00;;;;;;5083254;28;20031;-73
2024/01/23 10:33:06;;;;;;;26.15;6.13;;;8.60;99.90;;;;;;5078056;28;20123;-73
2024/01/23 10:35:33;;;;;;;29.92;6.72;;;8.70;99.90;;;;;;5069768;28;20585;-73
2024/01/23 10:38:02;;;;;;;26.20;6.53;;;9.10;50.60;;;;;;5072101;28;20028;-72
2024/01/23 10:40:29;;;;;;;31.27;6.50;;;9.50;99.90;;;;;;5072670;28;20052;-73
2024/01/23 10:42:56;;;;;;;25.55;6.10;;;10.20;99.90;;;;;;5071463;28;20058;-72
2024/01/23 10:45:23;;;;;;;30.73;7.35;;;10.00;1.00;;;;;;5077972;28;20115;-73
2024/01/23 10:47:49;;;;;;;29.48;6.88;;;9.60;99.90;;;;;;5071639;28;20562;-74
2024/01/23 10:50:15;;;;;;;31.17;6.25;;;9.50;57.90;;;;;;5063138;28;20028;-72
2024/01/23 10:52:45;;;;;;;27.75;6.95;;;9.80;1.00;;;;;;5070748;28;20066;-73
2024/01/23 10:55:12;;;;;;;27.90;6.47;;;10.10;1.00;;;;;;5068187;28;20487;-73
2024/01/23 10:57:39;;;;;;;25.08;6.82;;;10.20;99.90;;;;;;5069271;28;20408;-72
2024/01/23 11:00:10;;;;;;;33.83;6.30;;;9.60;99.90;;;;;;5077925;28;20051;-72
2024/01/23 11:02:51;;;;;;;30.67;6.95;;;9.40;1.00;;;;;;5071996;28;20506;-74
2024/01/23 11:05:20;;;;;;;32.15;7.32;;;8.90;1.00;;;;;;5079368;28;20114;-73
2024/01/23 11:07:55;;;;;;;29.13;6.70;;;9.40;1.00;;;;;;5075783;28;20150;-73
2024/01/23 11:10:36;;;;;;;23.38;5.55;;;9.30;99.90;;;;;;5065609;28;20129;-74
2024/01/23 11:13:18;;;;;;;26.08;6.30;;;9.10;99.90;;;;;;5074850;28;20029;-74
2024/01/23 11:15:44;;;;;;;32.50;6.68;;;9.10;65.80;;;;;;5071000;28;20085;-74
2024/01/23 11:18:32;;;;;;;29.98;6.50;;;9.10;99.90;;;;;;5073906;28;20424;-73
2024/01/23 11:23:44;;;;;;;24.48;6.18;;;9.10;99.90;;;;;;5054308;28;20480;-71
2024/01/23 11:26:19;;;;;;;28.40;7.30;;;9.10;99.90;;;;;;5037172;28;20551;-74
2024/01/23 11:28:49;;;;;;;37.90;7.80;;;8.90;99.90;;;;;;5038732;28;20030;-74
2024/01/23 11:31:20;;;;;;;22.17;6.47;;;8.80;1.00;;;;;;5027346;28;20068;-74
2024/01/23 11:33:46;;;;;;;27.13;7.03;;;9.00;99.90;;;;;;5034275;28;20437;-74
2024/01/23 11:36:24;;;;;;;26.95;6.18;;;8.90;99.90;;;;;;5038124;28;20056;-74
2024/01/23 11:38:51;;;;;;;28.85;7.45;;;8.70;1.00;;;;;;5033049;28;20034;-74
2024/01/23 11:41:22;;;;;;;33.97;6.57;;;8.80;99.90;;;;;;5038461;28;20060;-74
2024/01/23 11:43:48;;;;;;;35.50;7.53;;;8.80;1.00;;;;;;5030439;28;20435;-74
2024/01/23 11:46:18;;;;;;;33.85;7.20;;;8.80;1.00;;;;;;5045076;28;20444;-74
2024/01/23 11:48:44;;;;;;;24.13;6.55;;;8.70;1.00;;;;;;5038902;28;20496;-74
2024/01/23 11:51:12;;;;;;;28.58;6.30;;;8.60;1.00;;;;;;5022444;28;20026;-74
2024/01/23 11:53:40;;;;;;;29.95;7.00;;;8.40;1.00;;;;;;5031039;28;20395;-73
2024/01/23 11:56:06;;;;;;;22.58;5.40;;;8.50;99.90;;;;;;5031817;28;20033;-71
2024/01/23 11:58:32;;;;;;;28.95;6.32;;;8.40;1.00;;;;;;5031602;28;20408;-74
2024/01/23 12:00:58;;;;;;;31.33;6.47;;;8.40;1.00;;;;;;5037966;28;20061;-74
2024/01/23 12:03:24;;;;;;;34.45;5.80;;;8.50;1.00;;;;;;5039834;28;20075;-73
2024/01/23 12:05:52;;;;;;;42.20;6.75;;;8.60;1.00;;;;;;5034065;28;20034;-73
2024/01/23 12:08:17;;;;;;;30.60;5.78;;;8.70;99.90;;;;;;5033626;28;20081;-74
2024/01/23 12:10:43;;;;;;;32.83;6.93;;;8.70;99.90;;;;;;5029162;28;20064;-74
2024/01/23 12:13:09;;;;;;;29.00;5.63;;;8.80;99.90;;;;;;5038723;28;20029;-74
2024/01/23 12:15:35;;;;;;;26.67;6.55;;;8.90;99.90;;;;;;5033152;28;20037;-74
2024/01/23 12:18:01;;;;;;;30.63;6.25;;;9.10;99.90;;;;;;5035550;28;20025;-74
2024/01/23 12:20:26;;;;;;;28.10;6.78;;;9.10;99.90;;;;;;5029638;28;20044;-74
2024/01/23 12:22:52;;;;;;;29.35;6.53;;;8.90;49.60;;;;;;5033450;28;20411;-74
2024/01/23 12:25:18;;;;;;;26.90;6.80;;;8.70;99.90;;;;;;5042869;28;20025;-73
2024/01/23 12:27:44;;;;;;;31.92;6.25;;;8.80;99.90;;;;;;5032725;28;20044;-74
2024/01/23 12:30:13;;;;;;;33.85;6.45;;;8.80;99.90;;;;;;5027970;28;20105;-73
2024/01/23 12:32:38;;;;;;;33.55;6.75;;;8.80;99.90;;;;;;5028027;28;20100;-73
2024/01/23 12:35:07;;;;;;;27.52;5.90;;;8.90;99.90;;;;;;5016499;28;20042;-73
2024/01/23 12:37:33;;;;;;;29.98;5.32;;;8.80;1.00;;;;;;5019506;28;20459;-73
2024/01/23 12:40:08;;;;;;;33.72;5.85;;;8.80;1.00;;;;;;5015022;28;20026;-72
2024/01/23 12:42:36;;;;;;;27.67;5.72;;;8.70;99.90;;;;;;5015988;28;20038;-73
2024/01/23 12:45:02;;;;;;;27.33;6.07;;;8.70;99.90;;;;;;5028531;28;20025;-73
2024/01/23 12:47:28;;;;;;;27.10;5.95;;;8.80;1.00;;;;;;5019929;28;20076;-74
2024/01/23 12:49:53;;;;;;;26.10;5.35;;;8.90;1.00;;;;;;5031808;28;20049;-74
2024/01/23 12:52:19;;;;;;;25.52;5.00;;;9.00;99.90;;;;;;5027594;28;20541;-74